createdAt,value
2019-04-01T00:00:58.553Z,56.49
2019-04-01T00:01:58.579Z,56.70
2019-04-01T00:02:58.532Z,56.70
2019-04-01T00:03:58.520Z,56.59
2019-04-01T00:04:58.519Z,56.70
2019-04-01T00:05:58.501Z,56.72
2019-04-01T00:06:58.487Z,56.70
2019-04-01T00:07:58.495Z,56.28
2019-04-01T00:08:58.487Z,57.03
2019-04-01T00:09:58.467Z,57.13
2019-04-01T00:10:58.471Z,56.72
2019-04-01T00:11:58.438Z,56.72
2019-04-01T00:12:58.422Z,56.72
2019-04-01T00:13:58.405Z,56.72
2019-04-01T00:15:08.118Z,56.93
2019-04-01T00:15:58.420Z,57.23
2019-04-01T00:16:58.565Z,56.72
2019-04-01T00:17:58.365Z,56.82
2019-04-01T00:20:15.546Z,56.82
2019-04-01T00:21:15.520Z,57.23
2019-04-01T00:22:15.508Z,56.85
2019-04-01T00:23:15.505Z,57.16
2019-04-01T00:24:15.492Z,56.62
2019-04-01T00:25:15.503Z,56.74
2019-04-01T00:26:15.466Z,57.26
2019-04-01T00:27:15.500Z,57.16
2019-04-01T00:28:15.449Z,56.54
2019-04-01T00:29:15.437Z,57.16
2019-04-01T00:30:15.442Z,57.16
2019-04-01T00:31:15.409Z,56.54
2019-04-01T00:32:15.398Z,56.95
2019-04-01T00:33:15.392Z,57.06
2019-04-01T00:34:15.376Z,57.06
2019-04-01T00:35:15.393Z,57.26
2019-04-01T00:36:15.413Z,57.36
2019-04-01T00:37:15.382Z,57.39
2019-04-01T00:38:15.369Z,57.29
2019-04-01T00:39:15.555Z,57.18
2019-04-01T00:40:15.314Z,57.29
2019-04-01T00:41:15.323Z,57.90
2019-04-01T00:42:15.331Z,57.06
2019-04-01T00:43:15.281Z,57.29
2019-04-01T00:44:15.270Z,57.18
2019-04-01T00:45:15.258Z,58.01
2019-04-01T00:46:15.385Z,57.50
2019-04-01T00:47:15.255Z,58.54
2019-04-01T00:48:15.230Z,56.90
2019-04-01T00:49:15.212Z,58.54
2019-04-01T00:50:15.799Z,58.14
2019-04-01T00:52:32.404Z,57.01
2019-04-01T00:53:32.372Z,58.14
2019-04-01T00:54:32.382Z,58.75
2019-04-01T00:55:32.351Z,57.62
2019-04-01T00:56:42.639Z,57.73
2019-04-01T00:58:48.519Z,58.45
2019-04-01T01:01:05.710Z,58.75
2019-04-01T01:02:13.234Z,57.93
2019-04-01T01:03:05.749Z,58.75
2019-04-01T01:04:05.663Z,58.54
2019-04-01T01:05:05.670Z,58.75
2019-04-01T01:06:05.637Z,58.65
2019-04-01T01:07:15.434Z,58.34
2019-04-01T01:08:05.609Z,58.14
2019-04-01T01:09:05.605Z,58.75
2019-04-01T01:10:05.645Z,58.45
2019-04-01T01:11:05.609Z,58.54
2019-04-01T01:12:16.485Z,58.68
2019-04-01T01:13:13.129Z,58.54
2019-04-01T01:14:05.546Z,58.54
2019-04-01T01:15:14.349Z,58.58
2019-04-01T01:16:13.068Z,58.37
2019-04-01T01:17:14.113Z,58.58
2019-04-01T01:18:15.340Z,58.68
2019-04-01T01:19:13.055Z,58.86
2019-04-01T01:20:14.050Z,58.68
2019-04-01T01:21:14.028Z,58.65
2019-04-01T01:22:14.246Z,58.37
2019-04-01T01:23:13.007Z,58.68
2019-04-01T01:24:12.975Z,58.98
2019-04-01T01:25:13.004Z,58.98
2019-04-01T01:26:14.684Z,58.89
2019-04-01T01:27:14.215Z,58.98
2019-04-01T01:28:15.448Z,58.47
2019-04-01T01:29:13.966Z,58.47
2019-04-01T01:30:05.378Z,58.47
2019-04-01T01:31:13.936Z,58.47
2019-04-01T01:32:12.904Z,58.47
2019-04-01T01:33:15.563Z,58.68
2019-04-01T01:34:14.162Z,59.09
2019-04-01T01:35:12.932Z,59.19
2019-04-01T01:36:14.065Z,59.19
2019-04-01T01:37:12.893Z,59.12
2019-04-01T01:38:14.253Z,59.12
2019-04-01T01:39:13.844Z,59.12
2019-04-01T01:40:12.813Z,59.19
2019-04-01T01:41:13.106Z,59.33
2019-04-01T01:42:14.877Z,58.81
2019-04-01T01:44:33.417Z,59.63
2019-04-01T01:45:42.184Z,59.42
2019-04-01T01:46:41.914Z,59.25
2019-04-01T01:47:33.332Z,59.42
2019-04-01T01:48:33.348Z,59.45
2019-04-01T01:49:33.313Z,59.63
2019-04-01T01:50:33.312Z,60.59
2019-04-01T01:51:33.330Z,59.45
2019-04-01T01:52:33.285Z,59.53
2019-04-01T01:53:33.271Z,59.74
2019-04-01T01:54:33.284Z,60.59
2019-04-01T01:55:33.251Z,60.28
2019-04-01T01:56:42.162Z,59.97
2019-04-01T01:57:40.777Z,59.97
2019-04-01T01:58:40.752Z,59.86
2019-04-01T01:59:33.245Z,60.59
2019-04-01T02:00:33.190Z,60.89
2019-04-01T02:01:33.179Z,60.51
2019-04-01T02:02:33.168Z,61.13
2019-04-01T02:03:33.165Z,60.61
2019-04-01T02:04:33.178Z,60.82
2019-04-01T02:05:33.138Z,60.82
2019-04-01T02:06:33.132Z,60.82
2019-04-01T02:07:33.118Z,60.61
2019-04-01T02:08:33.247Z,60.10
2019-04-01T02:09:33.117Z,60.41
2019-04-01T02:10:33.087Z,60.61
2019-04-01T02:11:33.079Z,61.33
2019-04-01T02:12:33.059Z,60.93
2019-04-01T02:13:41.877Z,60.82
2019-04-01T02:14:42.903Z,60.41
2019-04-01T02:15:41.600Z,60.61
2019-04-01T02:16:33.021Z,60.31
2019-04-01T02:17:33.010Z,60.51
2019-04-01T02:18:33.085Z,61.03
2019-04-01T02:19:33.020Z,61.24
2019-04-01T02:20:32.981Z,60.61
2019-04-01T02:21:32.992Z,60.75
2019-04-01T02:22:33.003Z,61.57
2019-04-01T02:23:32.946Z,61.26
2019-04-01T02:24:32.970Z,61.26
2019-04-01T02:25:32.929Z,61.78
2019-04-01T02:26:32.927Z,61.16
2019-04-01T02:27:32.901Z,61.57
2019-04-01T02:28:32.889Z,61.36
2019-04-01T02:29:32.879Z,61.16
2019-04-01T02:30:32.890Z,61.16
2019-04-01T02:31:32.863Z,61.88
2019-04-01T02:32:32.874Z,61.78
2019-04-01T02:33:32.835Z,61.57
2019-04-01T02:34:32.834Z,61.47
2019-04-01T02:35:32.842Z,61.91
2019-04-01T02:36:32.808Z,62.19
2019-04-01T02:37:32.799Z,61.98
2019-04-01T02:38:32.791Z,61.80
2019-04-01T02:39:32.876Z,60.88
2019-04-01T02:40:32.778Z,62.32
2019-04-01T02:41:32.749Z,61.40
2019-04-01T02:42:32.743Z,62.08
2019-04-01T02:43:40.346Z,62.32
2019-04-01T02:44:40.265Z,62.74
2019-04-01T02:45:32.738Z,62.94
2019-04-01T02:46:32.694Z,63.15
2019-04-01T02:47:32.767Z,62.84
2019-04-01T02:48:40.551Z,62.12
2019-04-01T02:49:41.230Z,62.84
2019-04-01T02:50:32.666Z,62.22
2019-04-01T02:51:32.694Z,62.74
2019-04-01T02:52:32.649Z,62.22
2019-04-01T02:53:32.619Z,62.32
2019-04-01T02:54:32.614Z,62.43
2019-04-01T02:55:32.604Z,62.32
2019-04-01T02:56:32.642Z,63.15
2019-04-01T02:57:32.574Z,62.74
2019-04-01T02:58:32.572Z,62.63
2019-04-01T02:59:32.559Z,62.63
2019-04-01T03:00:32.550Z,62.53
2019-04-01T03:01:32.567Z,63.07
2019-04-01T03:02:32.525Z,62.63
2019-04-01T03:03:32.514Z,62.63
2019-04-01T03:04:32.500Z,62.32
2019-04-01T03:05:32.493Z,62.84
2019-04-01T03:06:32.551Z,62.63
2019-04-01T03:07:32.520Z,62.76
2019-04-01T03:08:32.489Z,62.76
2019-04-01T03:09:32.454Z,62.63
2019-04-01T03:10:32.446Z,62.84
2019-04-01T03:11:32.456Z,63.15
2019-04-01T03:12:32.425Z,62.94
2019-04-01T03:13:32.449Z,62.97
2019-04-01T03:14:32.392Z,63.28
2019-04-01T03:15:32.397Z,63.07
2019-04-01T03:16:32.375Z,63.28
2019-04-01T03:17:32.382Z,63.59
2019-04-01T03:18:32.358Z,63.28
2019-04-01T03:19:32.342Z,63.39
2019-04-01T03:20:32.328Z,63.39
2019-04-01T03:21:39.856Z,63.79
2019-04-01T03:22:41.020Z,63.49
2019-04-01T03:23:41.124Z,63.59
2019-04-01T03:24:39.857Z,64.00
2019-04-01T03:25:39.823Z,64.11
2019-04-01T03:26:39.818Z,64.21
2019-04-01T03:28:51.151Z,64.31
2019-04-01T03:31:01.591Z,63.69
2019-04-01T03:32:01.593Z,63.72
2019-04-01T03:33:01.619Z,63.79
2019-04-01T03:34:01.555Z,63.69
2019-04-01T03:35:02.105Z,63.79
2019-04-01T03:36:01.581Z,63.42
2019-04-01T03:37:01.499Z,63.93
2019-04-01T03:38:01.508Z,63.82
2019-04-01T03:39:01.485Z,63.82
2019-04-01T03:40:01.474Z,63.39
2019-04-01T03:41:01.472Z,64.03
2019-04-01T03:42:01.458Z,63.62
2019-04-01T03:43:01.483Z,63.90
2019-04-01T03:44:01.433Z,63.62
2019-04-01T03:45:01.437Z,64.24
2019-04-01T03:46:01.441Z,64.24
2019-04-01T03:47:01.398Z,64.24
2019-04-01T03:48:01.478Z,64.14
2019-04-01T03:49:01.391Z,64.03
2019-04-01T03:50:01.363Z,64.14
2019-04-01T03:51:01.389Z,64.86
2019-04-01T03:52:01.340Z,64.96
2019-04-01T03:53:01.376Z,65.89
2019-04-01T03:54:01.341Z,65.17
2019-04-01T03:55:01.304Z,65.06
2019-04-01T03:56:01.294Z,64.34
2019-04-01T03:57:01.283Z,64.96
2019-04-01T03:58:01.289Z,64.96
2019-04-01T03:59:01.271Z,65.06
2019-04-01T04:00:01.285Z,65.89
2019-04-01T04:01:01.238Z,66.10
2019-04-01T04:02:01.231Z,65.89
2019-04-01T04:03:01.222Z,66.20
2019-04-01T04:04:01.208Z,66.00
2019-04-01T04:05:01.268Z,66.20
2019-04-01T04:06:01.184Z,65.89
2019-04-01T04:07:01.175Z,66.10
2019-04-01T04:08:01.170Z,66.72
2019-04-01T04:09:02.215Z,66.61
2019-04-01T04:10:01.152Z,66.85
2019-04-01T04:11:01.163Z,66.61
2019-04-01T04:12:01.123Z,66.44
2019-04-01T04:13:01.112Z,66.85
2019-04-01T04:14:01.132Z,67.06
2019-04-01T04:15:01.102Z,66.85
2019-04-01T04:16:01.082Z,66.64
2019-04-01T04:17:01.070Z,66.75
2019-04-01T04:18:01.051Z,67.27
2019-04-01T04:19:01.065Z,67.68
2019-04-01T04:20:01.033Z,67.27
2019-04-01T04:21:01.041Z,67.61
2019-04-01T04:22:01.067Z,68.19
2019-04-01T04:23:01.004Z,68.09
2019-04-01T04:24:00.989Z,68.02
2019-04-01T04:25:00.995Z,67.71
2019-04-01T04:26:00.972Z,67.71
2019-04-01T04:27:00.969Z,67.82
2019-04-01T04:28:00.942Z,68.12
2019-04-01T04:29:00.935Z,67.82
2019-04-01T04:30:00.944Z,68.02
2019-04-01T04:31:00.906Z,67.91
2019-04-01T04:32:00.900Z,68.54
2019-04-01T04:33:00.887Z,68.02
2019-04-01T04:34:00.876Z,68.43
2019-04-01T04:35:00.971Z,68.74
2019-04-01T04:36:00.856Z,68.54
2019-04-01T04:37:00.849Z,68.74
2019-04-01T04:38:00.837Z,69.47
2019-04-01T04:39:00.825Z,68.54
2019-04-01T04:40:00.809Z,68.33
2019-04-01T04:41:00.869Z,68.43
2019-04-01T04:42:00.790Z,68.64
2019-04-01T04:43:00.780Z,69.37
2019-04-01T04:44:00.779Z,69.37
2019-04-01T04:45:00.764Z,69.37
2019-04-01T04:46:00.851Z,69.37
2019-04-01T04:47:00.743Z,68.74
2019-04-01T04:48:00.724Z,69.47
2019-04-01T04:49:00.731Z,69.57
2019-04-01T04:50:00.706Z,69.26
2019-04-01T04:51:00.707Z,69.47
2019-04-01T04:52:00.690Z,69.47
2019-04-01T04:53:00.674Z,69.26
2019-04-01T04:54:00.668Z,69.37
2019-04-01T04:55:00.651Z,69.37
2019-04-01T04:56:00.639Z,68.33
2019-04-01T04:57:00.659Z,69.37
2019-04-01T04:58:08.242Z,69.47
2019-04-01T04:59:00.614Z,68.95
2019-04-01T05:00:08.146Z,69.47
2019-04-01T05:01:00.584Z,69.37
2019-04-01T05:02:00.609Z,69.57
2019-04-01T05:03:00.565Z,67.91
2019-04-01T05:04:00.553Z,68.23
2019-04-01T05:05:00.582Z,67.71
2019-04-01T05:06:00.537Z,68.43
2019-04-01T05:07:00.542Z,68.54
2019-04-01T05:08:00.529Z,68.12
2019-04-01T05:09:00.510Z,67.71
2019-04-01T05:10:00.513Z,68.23
2019-04-01T05:11:00.488Z,68.02
2019-04-01T05:12:00.519Z,68.54
2019-04-01T05:13:00.458Z,68.43
2019-04-01T05:14:00.474Z,68.23
2019-04-01T05:15:00.484Z,68.12
2019-04-01T05:16:00.486Z,67.71
2019-04-01T05:17:00.458Z,67.30
2019-04-01T05:18:00.668Z,67.50
2019-04-01T05:19:00.453Z,67.61
2019-04-01T05:21:16.641Z,68.12
2019-04-01T05:22:16.608Z,68.64
2019-04-01T05:23:16.544Z,69.16
2019-04-01T05:24:16.530Z,69.37
2019-04-01T05:25:16.518Z,69.37
2019-04-01T05:26:16.506Z,69.16
2019-04-01T05:27:16.517Z,69.37
2019-04-01T05:28:16.485Z,69.57
2019-04-01T05:29:16.492Z,69.47
2019-04-01T05:30:25.090Z,69.47
2019-04-01T05:31:16.492Z,69.37
2019-04-01T05:32:16.441Z,69.16
2019-04-01T05:33:16.452Z,69.26
2019-04-01T05:34:23.999Z,69.37
2019-04-01T05:35:16.474Z,69.26
2019-04-01T05:36:23.968Z,68.95
2019-04-01T05:37:16.392Z,68.74
2019-04-01T05:38:16.401Z,69.57
2019-04-01T05:39:16.369Z,69.57
2019-04-01T05:40:16.361Z,69.47
2019-04-01T05:41:16.347Z,69.33
2019-04-01T05:42:16.366Z,69.54
2019-04-01T05:43:16.356Z,68.30
2019-04-01T05:44:16.321Z,68.51
2019-04-01T05:45:16.310Z,69.43
2019-04-01T05:46:16.370Z,68.92
2019-04-01T05:47:16.292Z,68.71
2019-04-01T05:48:16.293Z,68.30
2019-04-01T05:49:16.264Z,67.88
2019-04-01T05:50:16.256Z,68.40
2019-04-01T05:51:16.261Z,68.40
2019-04-01T05:52:16.228Z,68.30
2019-04-01T05:53:16.215Z,68.09
2019-04-01T05:54:16.228Z,68.19
2019-04-01T05:55:23.748Z,68.19
2019-04-01T05:56:16.196Z,68.19
2019-04-01T05:57:16.168Z,67.44
2019-04-01T05:58:16.172Z,67.47
2019-04-01T05:59:16.174Z,67.44
2019-04-01T06:00:16.138Z,67.13
2019-04-01T06:01:16.184Z,67.24
2019-04-01T06:02:16.119Z,66.30
2019-04-01T06:03:16.105Z,66.72
2019-04-01T06:04:16.116Z,66.82
2019-04-01T06:05:16.082Z,66.93
2019-04-01T06:06:16.079Z,67.13
2019-04-01T06:07:16.063Z,66.82
2019-04-01T06:08:16.057Z,66.69
2019-04-01T06:09:16.075Z,67.10
2019-04-01T06:10:16.025Z,67.10
2019-04-01T06:11:16.039Z,67.00
2019-04-01T06:12:16.011Z,65.97
2019-04-01T06:13:16.005Z,65.97
2019-04-01T06:14:16.045Z,65.66
2019-04-01T06:15:15.969Z,66.58
2019-04-01T06:16:15.961Z,67.10
2019-04-01T06:17:15.957Z,66.07
2019-04-01T06:18:15.945Z,66.17
2019-04-01T06:19:15.941Z,66.48
2019-04-01T06:20:16.047Z,66.58
2019-04-01T06:21:15.958Z,66.24
2019-04-01T06:22:15.891Z,66.38
2019-04-01T06:23:15.888Z,66.27
2019-04-01T06:24:15.875Z,65.52
2019-04-01T06:25:15.905Z,65.42
2019-04-01T06:26:15.848Z,65.66
2019-04-01T06:27:16.357Z,65.52
2019-04-01T06:28:15.825Z,66.24
2019-04-01T06:29:15.816Z,65.42
2019-04-01T06:30:15.835Z,64.80
2019-04-01T06:31:15.806Z,64.70
2019-04-01T06:32:15.791Z,65.62
2019-04-01T06:33:15.776Z,65.42
2019-04-01T06:34:15.766Z,66.21
2019-04-01T06:35:15.773Z,65.42
2019-04-01T06:36:15.781Z,64.49
2019-04-01T06:37:15.797Z,64.77
2019-04-01T06:38:15.723Z,64.36
2019-04-01T06:39:15.711Z,64.87
2019-04-01T06:40:15.703Z,64.46
2019-04-01T06:41:15.705Z,64.64
2019-04-01T06:42:15.697Z,63.60
2019-04-01T06:43:15.671Z,63.60
2019-04-01T06:44:15.660Z,63.92
2019-04-01T06:45:15.647Z,63.71
2019-04-01T06:46:15.660Z,64.64
2019-04-01T06:47:15.682Z,63.71
2019-04-01T06:48:15.620Z,63.92
2019-04-01T06:49:15.642Z,64.02
2019-04-01T06:50:15.588Z,64.02
2019-04-01T06:51:15.598Z,64.53
2019-04-01T06:52:15.567Z,64.61
2019-04-01T06:53:15.560Z,64.29
2019-04-01T06:54:15.575Z,63.96
2019-04-01T06:55:15.533Z,64.09
2019-04-01T06:56:15.555Z,63.65
2019-04-01T06:57:15.530Z,63.13
2019-04-01T06:58:15.521Z,63.34
2019-04-01T06:59:15.494Z,63.13
2019-04-01T07:00:15.477Z,62.21
2019-04-01T07:01:15.488Z,62.52
2019-04-01T07:02:15.483Z,62.18
2019-04-01T07:03:23.006Z,61.98
2019-04-01T07:04:15.435Z,62.10
2019-04-01T07:05:15.430Z,61.77
2019-04-01T07:06:15.416Z,62.18
2019-04-01T07:07:19.180Z,63.00
2019-04-01T07:08:15.396Z,62.07
2019-04-01T07:09:15.385Z,61.02
2019-04-01T07:10:15.374Z,61.15
2019-04-01T07:11:15.382Z,62.05
2019-04-01T07:12:15.352Z,60.40
2019-04-01T07:13:15.369Z,60.81
2019-04-01T07:14:15.332Z,60.71
2019-04-01T07:15:15.328Z,60.71
2019-04-01T07:16:16.252Z,59.17
2019-04-01T07:17:15.310Z,59.24
2019-04-01T07:18:15.304Z,58.73
2019-04-01T07:19:15.284Z,58.11
2019-04-01T07:20:15.265Z,59.24
2019-04-01T07:21:15.255Z,58.83
2019-04-01T07:22:15.257Z,58.11
2019-04-01T07:23:15.268Z,58.01
2019-04-01T07:24:15.229Z,57.26
2019-04-01T07:25:15.286Z,57.88
2019-04-01T07:26:15.197Z,57.88
2019-04-01T07:27:15.189Z,56.95
2019-04-01T07:28:15.198Z,57.36
2019-04-01T07:29:15.175Z,57.06
2019-04-01T07:30:15.163Z,57.13
2019-04-01T07:31:15.161Z,57.23
2019-04-01T07:32:15.149Z,57.13
2019-04-01T07:33:15.181Z,57.03
2019-04-01T07:34:15.121Z,57.03
2019-04-01T07:35:15.140Z,56.72
2019-04-01T07:36:15.088Z,56.10
2019-04-01T07:37:15.075Z,57.13
2019-04-01T07:38:15.074Z,57.00
2019-04-01T07:39:15.080Z,56.00
2019-04-01T07:40:15.045Z,55.77
2019-04-01T07:41:15.090Z,55.77
2019-04-01T07:42:15.023Z,55.59
2019-04-01T07:43:15.291Z,55.77
2019-04-01T07:44:15.043Z,55.90
2019-04-01T07:45:15.005Z,56.28
2019-04-01T07:46:14.980Z,55.87
2019-04-01T07:47:14.971Z,55.87
2019-04-01T07:48:14.964Z,55.66
2019-04-01T07:49:14.971Z,55.66
2019-04-01T07:50:14.940Z,56.18
2019-04-01T07:51:14.950Z,56.70
2019-04-01T07:52:14.919Z,56.05
2019-04-01T07:53:14.910Z,56.05
2019-04-01T07:54:18.381Z,55.54
2019-04-01T07:55:14.886Z,55.64
2019-04-01T07:56:14.878Z,54.92
2019-04-01T07:57:14.863Z,55.43
2019-04-01T07:58:14.852Z,54.82
2019-04-01T07:59:14.838Z,54.92
2019-04-01T08:00:14.845Z,54.69
2019-04-01T08:01:14.813Z,55.30
2019-04-01T08:02:14.839Z,55.10
2019-04-01T08:03:14.798Z,54.90
2019-04-01T08:04:14.793Z,54.36
2019-04-01T08:05:14.810Z,54.36
2019-04-01T08:06:14.774Z,54.15
2019-04-01T08:07:14.751Z,53.51
2019-04-01T08:08:14.764Z,53.61
2019-04-01T08:09:14.737Z,53.51
2019-04-01T08:10:14.729Z,53.85
2019-04-01T08:11:14.732Z,53.61
2019-04-01T08:12:14.699Z,54.44
2019-04-01T08:13:14.690Z,54.13
2019-04-01T08:14:14.696Z,54.02
2019-04-01T08:15:14.673Z,53.82
2019-04-01T08:16:14.736Z,53.61
2019-04-01T08:17:14.640Z,53.49
2019-04-01T08:18:14.629Z,53.28
2019-04-01T08:19:14.644Z,52.47
2019-04-01T08:20:14.645Z,52.77
2019-04-01T08:21:14.659Z,52.64
2019-04-01T08:22:14.734Z,52.67
2019-04-01T08:23:14.578Z,53.08
2019-04-01T08:24:14.572Z,52.34
2019-04-01T08:25:14.559Z,52.87
2019-04-01T08:26:14.631Z,53.36
2019-04-01T08:27:14.582Z,53.46
2019-04-01T08:28:14.523Z,53.46
2019-04-01T08:29:29.127Z,53.56
2019-04-01T08:30:15.499Z,52.64
2019-04-01T08:31:14.504Z,52.95
2019-04-01T08:32:14.508Z,53.16
2019-04-01T08:33:14.502Z,52.44
2019-04-01T08:34:14.463Z,52.51
2019-04-01T08:35:14.463Z,52.62
2019-04-01T08:36:14.451Z,52.51
2019-04-01T08:37:14.456Z,52.21
2019-04-01T08:38:14.412Z,52.00
2019-04-01T08:39:14.402Z,53.03
2019-04-01T08:40:14.397Z,51.80
2019-04-01T08:41:14.378Z,51.78
2019-04-01T08:42:14.414Z,52.62
2019-04-01T08:43:14.356Z,52.19
2019-04-01T08:44:14.345Z,52.80
2019-04-01T08:45:14.335Z,52.59
2019-04-01T08:46:14.356Z,52.16
2019-04-01T08:47:14.317Z,50.73
2019-04-01T08:48:14.322Z,51.04
2019-04-01T08:49:14.291Z,51.45
2019-04-01T08:50:14.337Z,51.01
2019-04-01T08:51:14.266Z,50.37
2019-04-01T08:52:14.269Z,50.40
2019-04-01T08:53:14.304Z,50.07
2019-04-01T08:54:14.249Z,50.58
2019-04-01T08:55:14.268Z,49.66
2019-04-01T08:56:14.256Z,49.25
2019-04-01T08:57:14.202Z,49.46
2019-04-01T08:58:14.239Z,50.45
2019-04-01T08:59:14.197Z,49.54
2019-04-01T09:00:14.190Z,49.13
2019-04-01T09:01:14.164Z,50.07
2019-04-01T09:02:18.241Z,51.07
2019-04-01T09:03:14.177Z,49.22
2019-04-01T09:04:14.130Z,48.92
2019-04-01T09:05:14.131Z,49.92
2019-04-01T09:06:14.238Z,49.10
2019-04-01T09:07:14.096Z,49.10
2019-04-01T09:08:14.084Z,49.08
2019-04-01T09:09:14.091Z,49.08
2019-04-01T09:10:14.074Z,50.20
2019-04-01T09:11:14.106Z,49.29
2019-04-01T09:12:14.076Z,47.53
2019-04-01T09:13:14.037Z,47.94
2019-04-01T09:14:14.044Z,48.93
2019-04-01T09:15:14.020Z,48.93
2019-04-01T09:16:14.032Z,47.71
2019-04-01T09:17:13.989Z,47.20
2019-04-01T09:18:13.978Z,47.71
2019-04-01T09:19:14.036Z,47.58
2019-04-01T09:20:13.955Z,46.97
2019-04-01T09:21:13.943Z,47.38
2019-04-01T09:22:13.938Z,47.69
2019-04-01T09:23:13.947Z,47.77
2019-04-01T09:24:13.911Z,47.16
2019-04-01T09:25:13.917Z,47.13
2019-04-01T09:26:13.903Z,46.93
2019-04-01T09:27:13.892Z,47.31
2019-04-01T09:28:13.876Z,46.60
2019-04-01T09:29:13.860Z,46.07
2019-04-01T09:30:13.869Z,44.71
2019-04-01T09:31:13.836Z,42.41
2019-04-01T09:32:13.816Z,41.09
2019-04-01T09:33:13.971Z,38.96
2019-04-01T09:34:13.826Z,36.55
2019-04-01T09:35:14.050Z,34.69
2019-04-01T09:36:13.775Z,33.84
2019-04-01T09:37:13.891Z,32.90
2019-04-01T09:38:13.796Z,31.99
2019-04-01T09:39:13.911Z,32.17
2019-04-01T09:40:13.756Z,32.15
2019-04-01T09:41:13.837Z,32.34
2019-04-01T09:42:13.723Z,31.32
2019-04-01T09:43:14.228Z,29.98
2019-04-01T09:44:13.689Z,29.78
2019-04-01T09:45:13.686Z,29.77
2019-04-01T09:46:13.704Z,29.22
2019-04-01T09:47:13.660Z,27.99
2019-04-01T09:48:13.668Z,28.06
2019-04-01T09:49:13.647Z,26.35
2019-04-01T09:50:13.635Z,26.86
2019-04-01T09:51:13.641Z,25.73
2019-04-01T09:52:21.169Z,26.61
2019-04-01T09:53:21.144Z,26.39
2019-04-01T09:54:13.591Z,25.66
2019-04-01T09:55:13.568Z,24.76
2019-04-01T09:56:13.583Z,24.56
2019-04-01T09:57:18.008Z,24.76
2019-04-01T09:58:13.540Z,24.77
2019-04-01T09:59:13.525Z,26.09
2019-04-01T10:00:13.518Z,25.71
2019-04-01T10:01:13.526Z,25.43
2019-04-01T10:02:13.533Z,26.80
2019-04-01T10:03:22.296Z,25.60
2019-04-01T10:04:13.546Z,26.20
2019-04-01T10:05:13.468Z,26.28
2019-04-01T10:06:13.453Z,25.38
2019-04-01T10:07:13.465Z,24.98
2019-04-01T10:08:13.442Z,24.89
2019-04-01T10:09:13.455Z,26.70
2019-04-01T10:10:13.412Z,25.52
2019-04-01T10:11:13.427Z,26.92
2019-04-01T10:12:13.423Z,27.44
2019-04-01T10:13:13.404Z,28.05
2019-04-01T10:14:13.390Z,27.58
2019-04-01T10:15:13.395Z,27.79
2019-04-01T10:16:13.381Z,28.61
2019-04-01T10:17:13.388Z,30.62
2019-04-01T10:18:13.348Z,30.14
2019-04-01T10:19:13.330Z,30.16
2019-04-01T10:20:13.315Z,32.18
2019-04-01T10:21:13.310Z,31.38
2019-04-01T10:22:13.318Z,31.79
2019-04-01T10:23:13.293Z,31.40
2019-04-01T10:24:13.275Z,32.41
2019-04-01T10:25:13.269Z,31.73
2019-04-01T10:26:13.269Z,30.95
2019-04-01T10:27:13.256Z,32.57
2019-04-01T10:28:13.271Z,33.67
2019-04-01T10:29:13.237Z,33.58
2019-04-01T10:30:13.213Z,32.69
2019-04-01T10:31:13.232Z,33.91
2019-04-01T10:32:13.206Z,34.91
2019-04-01T10:33:13.219Z,33.72
2019-04-01T10:34:13.235Z,35.13
2019-04-01T10:35:13.200Z,34.74
2019-04-01T10:36:13.175Z,35.43
2019-04-01T10:37:13.175Z,34.12
2019-04-01T10:38:13.153Z,35.43
2019-04-01T10:39:13.157Z,34.63
2019-04-01T10:40:13.112Z,34.11
2019-04-01T10:41:13.104Z,34.33
2019-04-01T10:42:13.090Z,35.75
2019-04-01T10:43:13.102Z,34.84
2019-04-01T10:44:13.111Z,34.74
2019-04-01T10:45:13.114Z,33.95
2019-04-01T10:46:13.048Z,34.06
2019-04-01T10:47:13.092Z,35.36
2019-04-01T10:48:21.689Z,34.56
2019-04-01T10:49:20.630Z,34.34
2019-04-01T10:50:20.547Z,34.04
2019-04-01T10:51:20.539Z,34.44
2019-04-01T10:52:20.526Z,34.34
2019-04-01T10:53:20.544Z,34.26
2019-04-01T10:54:21.823Z,34.86
2019-04-01T10:55:20.506Z,34.96
2019-04-01T10:56:20.501Z,34.76
2019-04-01T10:57:20.496Z,34.76
2019-04-01T10:58:20.511Z,36.36
2019-04-01T10:59:21.560Z,35.66
2019-04-01T11:00:20.481Z,34.04
2019-04-01T11:01:20.506Z,34.66
2019-04-01T11:02:20.453Z,34.07
2019-04-01T11:03:20.494Z,35.48
2019-04-01T11:04:12.895Z,35.38
2019-04-01T11:05:12.891Z,35.18
2019-04-01T11:06:21.417Z,34.67
2019-04-01T11:07:12.895Z,35.39
2019-04-01T11:08:12.834Z,36.50
2019-04-01T11:09:31.613Z,35.90
2019-04-01T11:10:13.821Z,34.58
2019-04-01T11:11:12.780Z,34.78
2019-04-01T11:12:20.310Z,34.98
2019-04-01T11:13:22.002Z,35.50
2019-04-01T11:14:20.297Z,35.90
2019-04-01T11:15:15.586Z,34.27
2019-04-01T11:16:12.722Z,35.28
2019-04-01T11:17:20.253Z,35.50
2019-04-01T11:18:12.699Z,35.60
2019-04-01T11:19:21.244Z,34.78
2019-04-01T11:20:21.440Z,34.38
2019-04-01T11:21:21.509Z,34.07
2019-04-01T11:22:20.211Z,34.39
2019-04-01T11:23:20.243Z,33.89
2019-04-01T11:24:20.189Z,35.80
2019-04-01T11:25:21.674Z,35.60
2019-04-01T11:26:20.149Z,34.69
2019-04-01T11:27:20.154Z,36.10
2019-04-01T11:28:21.425Z,35.38
2019-04-01T11:29:12.584Z,34.98
2019-04-01T11:30:22.362Z,34.47
2019-04-01T11:31:20.119Z,34.26
2019-04-01T11:32:20.094Z,34.66
2019-04-01T11:33:20.086Z,34.96
2019-04-01T11:34:12.576Z,34.14
2019-04-01T11:35:21.575Z,34.34
2019-04-01T11:36:13.881Z,33.54
2019-04-01T11:37:12.535Z,36.43
2019-04-01T11:38:12.544Z,34.83
2019-04-01T11:39:12.549Z,34.12
2019-04-01T11:40:12.856Z,34.33
2019-04-01T11:41:12.510Z,34.11
2019-04-01T11:42:12.492Z,33.71
2019-04-01T11:43:12.475Z,34.12
2019-04-01T11:44:12.484Z,33.83
2019-04-01T11:45:12.475Z,34.22
2019-04-01T11:46:12.933Z,34.21
2019-04-01T11:47:12.386Z,33.79
2019-04-01T11:48:12.474Z,33.51
2019-04-01T11:49:12.418Z,34.31
2019-04-01T11:50:12.406Z,33.99
2019-04-01T11:51:12.409Z,33.39
2019-04-01T11:52:15.400Z,34.08
2019-04-01T11:53:12.384Z,33.46
2019-04-01T11:54:12.311Z,33.76
2019-04-01T11:55:12.300Z,32.15
2019-04-01T11:56:12.331Z,34.86
2019-04-01T11:57:12.314Z,33.96
2019-04-01T11:58:12.277Z,31.85
2019-04-01T11:59:12.266Z,32.07
2019-04-01T12:00:13.308Z,32.49
2019-04-01T12:01:21.036Z,32.47
2019-04-01T12:02:12.224Z,33.28
2019-04-01T12:03:12.211Z,35.38
2019-04-01T12:04:12.201Z,33.46
2019-04-01T12:05:12.187Z,32.34
2019-04-01T12:06:12.199Z,32.14
2019-04-01T12:07:12.191Z,32.43
2019-04-01T12:08:12.184Z,33.33
2019-04-01T12:09:12.148Z,31.93
2019-04-01T12:10:12.144Z,31.32
2019-04-01T12:11:12.124Z,31.43
2019-04-01T12:12:23.670Z,31.02
2019-04-01T12:13:13.105Z,32.21
2019-04-01T12:14:12.089Z,32.01
2019-04-01T12:15:12.758Z,31.10
2019-04-01T12:16:12.079Z,30.69
2019-04-01T12:17:12.090Z,30.29
2019-04-01T12:18:12.102Z,31.20
2019-04-01T12:19:12.046Z,30.79
2019-04-01T12:20:12.030Z,31.11
2019-04-01T12:21:12.013Z,30.81
2019-04-01T12:22:12.032Z,29.99
2019-04-01T12:23:11.994Z,31.49
2019-04-01T12:24:12.007Z,31.20
2019-04-01T12:25:11.973Z,30.49
2019-04-01T12:26:15.336Z,30.31
2019-04-01T12:27:11.960Z,30.60
2019-04-01T12:28:11.978Z,30.60
2019-04-01T12:29:12.540Z,30.60
2019-04-01T12:30:11.917Z,30.19
2019-04-01T12:31:13.025Z,29.88
2019-04-01T12:32:11.934Z,30.07
2019-04-01T12:33:11.922Z,30.16
2019-04-01T12:34:11.946Z,30.07
2019-04-01T12:35:11.861Z,30.66
2019-04-01T12:36:12.097Z,30.46
2019-04-01T12:37:11.837Z,32.05
2019-04-01T12:38:11.911Z,30.25
2019-04-01T12:39:11.820Z,29.64
2019-04-01T12:40:11.833Z,29.34
2019-04-01T12:41:11.806Z,28.74
2019-04-01T12:42:11.785Z,29.82
2019-04-01T12:43:11.837Z,28.83
2019-04-01T12:44:11.794Z,28.41
2019-04-01T12:45:11.757Z,28.30
2019-04-01T12:46:11.765Z,27.90
2019-04-01T12:47:11.736Z,27.29
2019-04-01T12:48:11.722Z,27.09
2019-04-01T12:49:11.738Z,26.48
2019-04-01T12:50:11.706Z,26.59
2019-04-01T12:51:11.687Z,27.49
2019-04-01T12:52:11.678Z,26.50
2019-04-01T12:53:11.747Z,27.79
2019-04-01T12:54:11.675Z,26.99
2019-04-01T12:55:11.679Z,26.69
2019-04-01T12:56:11.635Z,26.39
2019-04-01T12:57:11.626Z,26.76
2019-04-01T12:58:11.622Z,26.18
2019-04-01T12:59:11.649Z,27.37
2019-04-01T13:00:11.597Z,26.87
2019-04-01T13:01:11.584Z,26.27
2019-04-01T13:02:11.570Z,26.06
2019-04-01T13:03:11.564Z,25.76